sensor_id;sensor_type;location;lat;lon;timestamp;P1;durP1;ratioP1;P2;durP2;ratioP2
21326;SDS011;10822;51.532;6.770;2023-07-31T00:01:25;4.40;;;2.42;;
21326;SDS011;10822;51.532;6.770;2023-07-31T00:03:51;4.78;;;2.47;;
21326;SDS011;10822;51.532;6.770;2023-07-31T00:06:17;5.82;;;3.15;;
21326;SDS011;10822;51.532;6.770;2023-07-31T00:08:43;6.72;;;3.42;;
21326;SDS011;10822;51.532;6.770;2023-07-31T00:11:09;7.82;;;3.55;;
21326;SDS011;10822;51.532;6.770;2023-07-31T00:13:35;6.53;;;3.10;;
21326;SDS011;10822;51.532;6.770;2023-07-31T00:16:01;6.05;;;3.38;;
21326;SDS011;10822;51.532;6.770;2023-07-31T00:18:27;7.13;;;3.92;;
21326;SDS011;10822;51.532;6.770;2023-07-31T00:20:53;7.07;;;3.33;;
21326;SDS011;10822;51.532;6.770;2023-07-31T00:23:19;8.02;;;3.20;;
21326;SDS011;10822;51.532;6.770;2023-07-31T00:25:46;7.88;;;3.92;;
21326;SDS011;10822;51.532;6.770;2023-07-31T00:28:12;7.93;;;4.00;;
21326;SDS011;10822;51.532;6.770;2023-07-31T00:30:38;9.20;;;4.03;;
21326;SDS011;10822;51.532;6.770;2023-07-31T00:33:04;8.13;;;3.72;;
21326;SDS011;10822;51.532;6.770;2023-07-31T00:35:30;11.00;;;4.30;;
21326;SDS011;10822;51.532;6.770;2023-07-31T00:37:57;10.57;;;4.15;;
21326;SDS011;10822;51.532;6.770;2023-07-31T00:40:23;11.45;;;3.90;;
21326;SDS011;10822;51.532;6.770;2023-07-31T00:42:49;13.93;;;4.72;;
21326;SDS011;10822;51.532;6.770;2023-07-31T00:45:15;10.55;;;4.53;;
21326;SDS011;10822;51.532;6.770;2023-07-31T00:47:41;9.80;;;4.22;;
21326;SDS011;10822;51.532;6.770;2023-07-31T00:50:07;9.55;;;4.20;;
21326;SDS011;10822;51.532;6.770;2023-07-31T00:52:33;10.95;;;4.10;;
21326;SDS011;10822;51.532;6.770;2023-07-31T00:54:59;10.20;;;4.20;;
21326;SDS011;10822;51.532;6.770;2023-07-31T00:57:25;11.57;;;4.43;;
21326;SDS011;10822;51.532;6.770;2023-07-31T00:59:51;13.63;;;4.53;;
21326;SDS011;10822;51.532;6.770;2023-07-31T01:02:17;12.23;;;4.10;;
21326;SDS011;10822;51.532;6.770;2023-07-31T01:04:43;11.50;;;4.18;;
21326;SDS011;10822;51.532;6.770;2023-07-31T01:07:22;12.02;;;4.30;;
21326;SDS011;10822;51.532;6.770;2023-07-31T01:09:57;12.05;;;4.32;;
21326;SDS011;10822;51.532;6.770;2023-07-31T01:12:28;10.30;;;4.03;;
21326;SDS011;10822;51.532;6.770;2023-07-31T01:15:03;10.77;;;3.75;;
21326;SDS011;10822;51.532;6.770;2023-07-31T01:17:29;10.70;;;3.88;;
21326;SDS011;10822;51.532;6.770;2023-07-31T01:19:55;6.15;;;3.95;;
21326;SDS011;10822;51.532;6.770;2023-07-31T01:27:30;11.88;;;3.92;;
21326;SDS011;10822;51.532;6.770;2023-07-31T01:30:08;9.90;;;3.42;;
21326;SDS011;10822;51.532;6.770;2023-07-31T01:32:39;10.40;;;4.22;;
21326;SDS011;10822;51.532;6.770;2023-07-31T01:35:06;12.57;;;4.13;;
21326;SDS011;10822;51.532;6.770;2023-07-31T01:37:33;8.55;;;3.22;;
21326;SDS011;10822;51.532;6.770;2023-07-31T01:39:59;11.40;;;3.30;;
21326;SDS011;10822;51.532;6.770;2023-07-31T01:42:25;8.23;;;3.33;;
21326;SDS011;10822;51.532;6.770;2023-07-31T01:44:51;9.00;;;3.65;;
21326;SDS011;10822;51.532;6.770;2023-07-31T01:47:17;9.23;;;3.88;;
21326;SDS011;10822;51.532;6.770;2023-07-31T01:49:43;7.57;;;3.60;;
21326;SDS011;10822;51.532;6.770;2023-07-31T01:52:09;11.20;;;3.55;;
21326;SDS011;10822;51.532;6.770;2023-07-31T01:54:35;8.80;;;3.35;;
21326;SDS011;10822;51.532;6.770;2023-07-31T01:57:01;10.75;;;4.00;;
21326;SDS011;10822;51.532;6.770;2023-07-31T01:59:27;11.63;;;4.13;;
21326;SDS011;10822;51.532;6.770;2023-07-31T02:01:54;8.85;;;3.50;;
21326;SDS011;10822;51.532;6.770;2023-07-31T02:04:20;7.72;;;3.30;;
21326;SDS011;10822;51.532;6.770;2023-07-31T02:06:45;7.35;;;2.90;;
21326;SDS011;10822;51.532;6.770;2023-07-31T02:09:11;8.05;;;3.42;;
21326;SDS011;10822;51.532;6.770;2023-07-31T02:11:37;9.52;;;3.45;;
21326;SDS011;10822;51.532;6.770;2023-07-31T02:14:03;10.05;;;3.55;;
21326;SDS011;10822;51.532;6.770;2023-07-31T02:16:29;11.82;;;3.22;;
21326;SDS011;10822;51.532;6.770;2023-07-31T02:18:55;9.25;;;3.85;;
21326;SDS011;10822;51.532;6.770;2023-07-31T02:21:21;7.32;;;3.47;;
21326;SDS011;10822;51.532;6.770;2023-07-31T02:23:47;7.80;;;3.60;;
21326;SDS011;10822;51.532;6.770;2023-07-31T02:26:13;9.90;;;3.65;;
21326;SDS011;10822;51.532;6.770;2023-07-31T02:28:39;10.98;;;3.58;;
21326;SDS011;10822;51.532;6.770;2023-07-31T02:31:07;6.97;;;3.08;;
21326;SDS011;10822;51.532;6.770;2023-07-31T02:33:33;10.80;;;3.70;;
21326;SDS011;10822;51.532;6.770;2023-07-31T02:35:59;9.43;;;3.40;;
21326;SDS011;10822;51.532;6.770;2023-07-31T02:38:26;9.57;;;3.15;;
21326;SDS011;10822;51.532;6.770;2023-07-31T02:40:52;8.73;;;3.42;;
21326;SDS011;10822;51.532;6.770;2023-07-31T02:43:17;11.32;;;3.88;;
21326;SDS011;10822;51.532;6.770;2023-07-31T02:45:43;8.88;;;3.55;;
21326;SDS011;10822;51.532;6.770;2023-07-31T02:48:09;9.38;;;3.78;;
21326;SDS011;10822;51.532;6.770;2023-07-31T02:50:35;9.40;;;3.40;;
21326;SDS011;10822;51.532;6.770;2023-07-31T02:53:01;10.20;;;3.67;;
21326;SDS011;10822;51.532;6.770;2023-07-31T02:55:27;10.77;;;3.72;;
21326;SDS011;10822;51.532;6.770;2023-07-31T02:57:53;6.63;;;3.10;;
21326;SDS011;10822;51.532;6.770;2023-07-31T03:00:19;7.70;;;3.20;;
21326;SDS011;10822;51.532;6.770;2023-07-31T03:02:45;10.05;;;3.33;;
21326;SDS011;10822;51.532;6.770;2023-07-31T03:05:11;10.73;;;3.25;;
21326;SDS011;10822;51.532;6.770;2023-07-31T03:07:37;9.70;;;3.78;;
21326;SDS011;10822;51.532;6.770;2023-07-31T03:10:03;11.43;;;3.47;;
21326;SDS011;10822;51.532;6.770;2023-07-31T03:12:30;9.32;;;3.40;;
21326;SDS011;10822;51.532;6.770;2023-07-31T03:14:56;10.82;;;3.83;;
21326;SDS011;10822;51.532;6.770;2023-07-31T03:17:22;10.65;;;3.60;;
21326;SDS011;10822;51.532;6.770;2023-07-31T03:19:48;7.82;;;3.80;;
21326;SDS011;10822;51.532;6.770;2023-07-31T03:22:13;9.32;;;3.53;;
21326;SDS011;10822;51.532;6.770;2023-07-31T03:24:39;8.23;;;3.42;;
21326;SDS011;10822;51.532;6.770;2023-07-31T03:27:05;9.00;;;3.78;;
21326;SDS011;10822;51.532;6.770;2023-07-31T03:29:31;10.07;;;3.53;;
21326;SDS011;10822;51.532;6.770;2023-07-31T03:31:57;8.15;;;4.05;;
21326;SDS011;10822;51.532;6.770;2023-07-31T03:34:24;9.98;;;3.50;;
21326;SDS011;10822;51.532;6.770;2023-07-31T03:36:50;11.18;;;3.95;;
21326;SDS011;10822;51.532;6.770;2023-07-31T03:39:16;12.48;;;4.40;;
21326;SDS011;10822;51.532;6.770;2023-07-31T03:41:42;12.32;;;3.97;;
21326;SDS011;10822;51.532;6.770;2023-07-31T03:44:08;12.40;;;3.95;;
21326;SDS011;10822;51.532;6.770;2023-07-31T03:46:34;11.00;;;3.50;;
21326;SDS011;10822;51.532;6.770;2023-07-31T03:49:01;9.32;;;3.58;;
21326;SDS011;10822;51.532;6.770;2023-07-31T03:51:26;8.43;;;3.55;;
21326;SDS011;10822;51.532;6.770;2023-07-31T03:53:52;10.68;;;3.53;;
21326;SDS011;10822;51.532;6.770;2023-07-31T03:56:18;10.13;;;3.60;;
21326;SDS011;10822;51.532;6.770;2023-07-31T03:58:44;10.38;;;4.07;;
21326;SDS011;10822;51.532;6.770;2023-07-31T04:01:10;11.68;;;3.40;;
21326;SDS011;10822;51.532;6.770;2023-07-31T04:03:36;12.73;;;3.97;;
21326;SDS011;10822;51.532;6.770;2023-07-31T04:06:02;9.35;;;2.95;;
21326;SDS011;10822;51.532;6.770;2023-07-31T04:08:28;8.68;;;3.60;;
21326;SDS011;10822;51.532;6.770;2023-07-31T04:10:54;8.02;;;3.53;;
21326;SDS011;10822;51.532;6.770;2023-07-31T04:13:21;9.82;;;3.63;;
21326;SDS011;10822;51.532;6.770;2023-07-31T04:15:50;7.80;;;3.50;;
21326;SDS011;10822;51.532;6.770;2023-07-31T04:18:16;8.02;;;3.72;;
21326;SDS011;10822;51.532;6.770;2023-07-31T04:20:42;9.50;;;3.88;;
21326;SDS011;10822;51.532;6.770;2023-07-31T04:23:08;8.93;;;3.40;;
21326;SDS011;10822;51.532;6.770;2023-07-31T04:25:34;9.13;;;3.40;;
21326;SDS011;10822;51.532;6.770;2023-07-31T04:28:01;9.95;;;3.65;;
21326;SDS011;10822;51.532;6.770;2023-07-31T04:30:26;9.68;;;3.72;;
21326;SDS011;10822;51.532;6.770;2023-07-31T04:32:52;9.80;;;3.53;;
21326;SDS011;10822;51.532;6.770;2023-07-31T04:35:18;9.88;;;3.83;;
21326;SDS011;10822;51.532;6.770;2023-07-31T04:37:44;8.95;;;3.65;;
21326;SDS011;10822;51.532;6.770;2023-07-31T04:40:13;11.60;;;3.63;;
21326;SDS011;10822;51.532;6.770;2023-07-31T04:42:39;12.82;;;4.03;;
21326;SDS011;10822;51.532;6.770;2023-07-31T04:45:05;10.05;;;4.45;;
21326;SDS011;10822;51.532;6.770;2023-07-31T04:47:31;9.02;;;3.85;;
21326;SDS011;10822;51.532;6.770;2023-07-31T04:49:57;10.13;;;4.05;;
21326;SDS011;10822;51.532;6.770;2023-07-31T04:52:23;11.32;;;4.25;;
21326;SDS011;10822;51.532;6.770;2023-07-31T04:54:49;13.15;;;4.78;;
21326;SDS011;10822;51.532;6.770;2023-07-31T04:57:15;8.48;;;4.05;;
21326;SDS011;10822;51.532;6.770;2023-07-31T04:59:41;11.10;;;4.32;;
21326;SDS011;10822;51.532;6.770;2023-07-31T05:02:08;12.52;;;4.30;;
21326;SDS011;10822;51.532;6.770;2023-07-31T05:04:34;13.32;;;4.78;;
21326;SDS011;10822;51.532;6.770;2023-07-31T05:07:00;12.00;;;4.38;;
21326;SDS011;10822;51.532;6.770;2023-07-31T05:09:26;11.35;;;4.00;;
21326;SDS011;10822;51.532;6.770;2023-07-31T05:11:52;9.60;;;4.22;;
21326;SDS011;10822;51.532;6.770;2023-07-31T05:14:18;10.07;;;4.25;;
21326;SDS011;10822;51.532;6.770;2023-07-31T05:16:45;11.45;;;4.68;;
21326;SDS011;10822;51.532;6.770;2023-07-31T05:19:11;9.98;;;4.00;;
21326;SDS011;10822;51.532;6.770;2023-07-31T05:21:37;8.98;;;4.53;;
21326;SDS011;10822;51.532;6.770;2023-07-31T05:24:03;9.57;;;3.50;;
21326;SDS011;10822;51.532;6.770;2023-07-31T05:26:29;8.00;;;4.05;;
21326;SDS011;10822;51.532;6.770;2023-07-31T05:28:55;9.90;;;3.50;;
21326;SDS011;10822;51.532;6.770;2023-07-31T05:31:22;5.88;;;3.30;;
21326;SDS011;10822;51.532;6.770;2023-07-31T05:33:49;8.55;;;3.97;;
21326;SDS011;10822;51.532;6.770;2023-07-31T05:36:15;6.78;;;3.70;;
21326;SDS011;10822;51.532;6.770;2023-07-31T05:38:41;8.38;;;3.85;;
21326;SDS011;10822;51.532;6.770;2023-07-31T05:41:09;9.70;;;4.25;;
21326;SDS011;10822;51.532;6.770;2023-07-31T05:43:35;8.63;;;3.90;;
21326;SDS011;10822;51.532;6.770;2023-07-31T05:46:01;8.90;;;3.67;;
21326;SDS011;10822;51.532;6.770;2023-07-31T05:48:27;8.00;;;4.10;;
21326;SDS011;10822;51.532;6.770;2023-07-31T05:50:53;7.22;;;3.90;;
21326;SDS011;10822;51.532;6.770;2023-07-31T05:53:19;6.88;;;3.60;;
21326;SDS011;10822;51.532;6.770;2023-07-31T05:55:45;6.10;;;3.63;;
21326;SDS011;10822;51.532;6.770;2023-07-31T05:58:11;8.40;;;4.22;;
21326;SDS011;10822;51.532;6.770;2023-07-31T06:00:37;9.63;;;4.55;;
21326;SDS011;10822;51.532;6.770;2023-07-31T06:03:03;8.50;;;4.30;;
21326;SDS011;10822;51.532;6.770;2023-07-31T06:05:29;8.90;;;4.90;;
21326;SDS011;10822;51.532;6.770;2023-07-31T06:07:55;10.98;;;4.90;;
21326;SDS011;10822;51.532;6.770;2023-07-31T06:10:21;9.18;;;5.07;;
21326;SDS011;10822;51.532;6.770;2023-07-31T06:12:47;10.38;;;4.72;;
21326;SDS011;10822;51.532;6.770;2023-07-31T06:15:14;11.43;;;5.28;;
21326;SDS011;10822;51.532;6.770;2023-07-31T06:17:40;13.52;;;5.47;;
21326;SDS011;10822;51.532;6.770;2023-07-31T06:20:07;12.90;;;5.28;;
21326;SDS011;10822;51.532;6.770;2023-07-31T06:22:33;15.80;;;5.63;;
21326;SDS011;10822;51.532;6.770;2023-07-31T06:24:59;10.15;;;5.47;;
21326;SDS011;10822;51.532;6.770;2023-07-31T06:27:25;12.07;;;5.13;;
21326;SDS011;10822;51.532;6.770;2023-07-31T06:29:51;11.45;;;5.55;;
21326;SDS011;10822;51.532;6.770;2023-07-31T06:32:17;14.80;;;6.80;;
21326;SDS011;10822;51.532;6.770;2023-07-31T06:34:43;13.80;;;6.43;;
21326;SDS011;10822;51.532;6.770;2023-07-31T06:37:09;13.25;;;6.60;;
21326;SDS011;10822;51.532;6.770;2023-07-31T06:39:35;14.50;;;7.07;;
21326;SDS011;10822;51.532;6.770;2023-07-31T06:42:02;13.00;;;6.60;;
21326;SDS011;10822;51.532;6.770;2023-07-31T06:44:28;10.38;;;5.85;;
21326;SDS011;10822;51.532;6.770;2023-07-31T06:46:54;11.35;;;6.25;;
21326;SDS011;10822;51.532;6.770;2023-07-31T06:49:20;8.57;;;4.93;;
21326;SDS011;10822;51.532;6.770;2023-07-31T06:51:46;7.75;;;5.05;;
21326;SDS011;10822;51.532;6.770;2023-07-31T06:54:12;8.07;;;3.92;;
21326;SDS011;10822;51.532;6.770;2023-07-31T06:56:38;10.60;;;5.10;;
21326;SDS011;10822;51.532;6.770;2023-07-31T06:59:04;10.98;;;4.72;;
21326;SDS011;10822;51.532;6.770;2023-07-31T07:01:30;9.93;;;4.25;;
21326;SDS011;10822;51.532;6.770;2023-07-31T07:03:56;8.00;;;4.13;;
21326;SDS011;10822;51.532;6.770;2023-07-31T07:06:22;7.72;;;4.30;;
21326;SDS011;10822;51.532;6.770;2023-07-31T07:08:48;9.73;;;5.15;;
21326;SDS011;10822;51.532;6.770;2023-07-31T07:11:14;11.40;;;5.40;;
21326;SDS011;10822;51.532;6.770;2023-07-31T07:13:40;9.32;;;4.57;;
21326;SDS011;10822;51.532;6.770;2023-07-31T07:16:06;8.10;;;5.18;;
21326;SDS011;10822;51.532;6.770;2023-07-31T07:18:32;9.73;;;4.97;;
21326;SDS011;10822;51.532;6.770;2023-07-31T07:20:58;9.35;;;5.28;;
21326;SDS011;10822;51.532;6.770;2023-07-31T07:23:26;8.30;;;5.18;;
21326;SDS011;10822;51.532;6.770;2023-07-31T07:25:52;9.82;;;5.20;;
21326;SDS011;10822;51.532;6.770;2023-07-31T07:28:18;10.35;;;5.35;;
21326;SDS011;10822;51.532;6.770;2023-07-31T07:30:44;10.73;;;5.50;;
21326;SDS011;10822;51.532;6.770;2023-07-31T07:33:10;11.77;;;5.68;;
21326;SDS011;10822;51.532;6.770;2023-07-31T07:35:37;11.15;;;5.65;;
21326;SDS011;10822;51.532;6.770;2023-07-31T07:38:03;9.40;;;5.38;;
21326;SDS011;10822;51.532;6.770;2023-07-31T07:40:29;11.98;;;5.18;;
21326;SDS011;10822;51.532;6.770;2023-07-31T07:42:55;10.60;;;5.78;;
21326;SDS011;10822;51.532;6.770;2023-07-31T07:45:21;13.80;;;6.70;;
21326;SDS011;10822;51.532;6.770;2023-07-31T07:47:47;13.68;;;6.13;;
21326;SDS011;10822;51.532;6.770;2023-07-31T07:50:13;10.45;;;5.85;;
21326;SDS011;10822;51.532;6.770;2023-07-31T07:52:39;9.88;;;5.10;;
21326;SDS011;10822;51.532;6.770;2023-07-31T07:55:05;11.80;;;5.35;;
21326;SDS011;10822;51.532;6.770;2023-07-31T07:57:31;7.57;;;4.35;;
21326;SDS011;10822;51.532;6.770;2023-07-31T07:59:57;7.18;;;3.70;;
21326;SDS011;10822;51.532;6.770;2023-07-31T08:02:23;6.47;;;3.75;;
21326;SDS011;10822;51.532;6.770;2023-07-31T08:04:49;7.18;;;3.83;;
21326;SDS011;10822;51.532;6.770;2023-07-31T08:07:14;6.05;;;3.83;;
21326;SDS011;10822;51.532;6.770;2023-07-31T08:09:40;8.73;;;4.43;;
21326;SDS011;10822;51.532;6.770;2023-07-31T08:12:06;7.07;;;4.10;;
21326;SDS011;10822;51.532;6.770;2023-07-31T08:14:33;10.05;;;4.60;;
21326;SDS011;10822;51.532;6.770;2023-07-31T08:16:59;9.13;;;4.93;;
21326;SDS011;10822;51.532;6.770;2023-07-31T08:19:25;8.05;;;4.40;;
21326;SDS011;10822;51.532;6.770;2023-07-31T08:21:51;7.22;;;3.97;;
21326;SDS011;10822;51.532;6.770;2023-07-31T08:24:16;7.72;;;3.72;;
21326;SDS011;10822;51.532;6.770;2023-07-31T08:26:43;5.95;;;2.90;;
21326;SDS011;10822;51.532;6.770;2023-07-31T08:29:09;5.43;;;3.38;;
21326;SDS011;10822;51.532;6.770;2023-07-31T08:31:35;8.27;;;4.55;;
21326;SDS011;10822;51.532;6.770;2023-07-31T08:34:01;9.48;;;4.30;;
21326;SDS011;10822;51.532;6.770;2023-07-31T08:36:27;6.97;;;3.60;;
21326;SDS011;10822;51.532;6.770;2023-07-31T08:38:53;8.52;;;4.30;;
21326;SDS011;10822;51.532;6.770;2023-07-31T08:41:19;10.02;;;4.05;;
21326;SDS011;10822;51.532;6.770;2023-07-31T08:43:45;8.52;;;4.10;;
21326;SDS011;10822;51.532;6.770;2023-07-31T08:46:12;7.95;;;4.53;;
21326;SDS011;10822;51.532;6.770;2023-07-31T08:48:39;11.43;;;5.40;;
21326;SDS011;10822;51.532;6.770;2023-07-31T08:51:06;8.68;;;5.13;;
21326;SDS011;10822;51.532;6.770;2023-07-31T08:53:32;11.10;;;5.50;;
21326;SDS011;10822;51.532;6.770;2023-07-31T08:55:58;8.18;;;4.70;;
21326;SDS011;10822;51.532;6.770;2023-07-31T08:58:24;9.38;;;5.80;;
21326;SDS011;10822;51.532;6.770;2023-07-31T09:00:51;9.63;;;5.68;;
21326;SDS011;10822;51.532;6.770;2023-07-31T09:03:18;9.23;;;5.18;;
21326;SDS011;10822;51.532;6.770;2023-07-31T09:05:45;10.00;;;4.95;;
21326;SDS011;10822;51.532;6.770;2023-07-31T09:08:12;11.57;;;5.82;;
21326;SDS011;10822;51.532;6.770;2023-07-31T09:10:41;8.70;;;4.65;;
21326;SDS011;10822;51.532;6.770;2023-07-31T09:13:08;9.40;;;4.90;;
21326;SDS011;10822;51.532;6.770;2023-07-31T09:15:34;8.35;;;4.13;;
21326;SDS011;10822;51.532;6.770;2023-07-31T09:18:01;9.13;;;5.05;;
21326;SDS011;10822;51.532;6.770;2023-07-31T09:20:27;7.45;;;4.32;;
21326;SDS011;10822;51.532;6.770;2023-07-31T09:22:53;10.55;;;3.92;;
21326;SDS011;10822;51.532;6.770;2023-07-31T09:28:19;12.38;;;5.93;;
21326;SDS011;10822;51.532;6.770;2023-07-31T09:30:48;10.30;;;5.63;;
21326;SDS011;10822;51.532;6.770;2023-07-31T09:33:14;11.10;;;5.63;;
21326;SDS011;10822;51.532;6.770;2023-07-31T09:35:41;11.13;;;5.00;;
21326;SDS011;10822;51.532;6.770;2023-07-31T09:38:08;8.88;;;4.97;;
21326;SDS011;10822;51.532;6.770;2023-07-31T09:40:35;5.30;;;3.60;;
21326;SDS011;10822;51.532;6.770;2023-07-31T09:43:03;9.73;;;4.35;;
21326;SDS011;10822;51.532;6.770;2023-07-31T09:45:29;10.43;;;4.60;;
21326;SDS011;10822;51.532;6.770;2023-07-31T09:47:56;8.77;;;4.95;;
21326;SDS011;10822;51.532;6.770;2023-07-31T09:50:23;12.05;;;5.05;;
21326;SDS011;10822;51.532;6.770;2023-07-31T09:52:50;8.90;;;4.80;;
21326;SDS011;10822;51.532;6.770;2023-07-31T09:55:17;7.75;;;4.03;;
21326;SDS011;10822;51.532;6.770;2023-07-31T09:57:47;6.28;;;3.67;;
21326;SDS011;10822;51.532;6.770;2023-07-31T10:00:13;6.85;;;3.17;;
21326;SDS011;10822;51.532;6.770;2023-07-31T10:02:40;5.13;;;3.80;;
21326;SDS011;10822;51.532;6.770;2023-07-31T10:05:07;4.32;;;3.08;;
21326;SDS011;10822;51.532;6.770;2023-07-31T10:07:37;4.72;;;3.40;;
21326;SDS011;10822;51.532;6.770;2023-07-31T10:10:04;4.97;;;3.10;;
21326;SDS011;10822;51.532;6.770;2023-07-31T10:12:31;4.15;;;3.20;;
21326;SDS011;10822;51.532;6.770;2023-07-31T10:14:57;5.38;;;3.40;;
21326;SDS011;10822;51.532;6.770;2023-07-31T10:17:25;7.20;;;3.15;;
21326;SDS011;10822;51.532;6.770;2023-07-31T10:19:51;5.97;;;3.38;;
21326;SDS011;10822;51.532;6.770;2023-07-31T10:22:19;6.63;;;4.10;;
21326;SDS011;10822;51.532;6.770;2023-07-31T10:24:45;8.80;;;4.75;;
21326;SDS011;10822;51.532;6.770;2023-07-31T10:27:11;7.68;;;4.22;;
21326;SDS011;10822;51.532;6.770;2023-07-31T10:29:38;6.55;;;4.10;;
21326;SDS011;10822;51.532;6.770;2023-07-31T10:32:04;5.95;;;3.78;;
21326;SDS011;10822;51.532;6.770;2023-07-31T10:34:33;11.52;;;5.28;;
21326;SDS011;10822;51.532;6.770;2023-07-31T10:39:44;7.07;;;3.63;;
21326;SDS011;10822;51.532;6.770;2023-07-31T10:42:20;6.28;;;3.92;;
21326;SDS011;10822;51.532;6.770;2023-07-31T10:44:52;8.52;;;4.82;;
21326;SDS011;10822;51.532;6.770;2023-07-31T10:47:20;5.55;;;3.55;;
21326;SDS011;10822;51.532;6.770;2023-07-31T10:49:46;5.75;;;2.92;;
21326;SDS011;10822;51.532;6.770;2023-07-31T10:52:13;6.63;;;3.28;;
21326;SDS011;10822;51.532;6.770;2023-07-31T10:54:39;5.20;;;2.42;;
21326;SDS011;10822;51.532;6.770;2023-07-31T10:57:18;4.82;;;2.92;;
21326;SDS011;10822;51.532;6.770;2023-07-31T10:59:45;4.53;;;2.80;;
21326;SDS011;10822;51.532;6.770;2023-07-31T11:02:23;6.18;;;2.80;;
21326;SDS011;10822;51.532;6.770;2023-07-31T11:05:07;5.05;;;2.92;;
21326;SDS011;10822;51.532;6.770;2023-07-31T11:07:48;6.13;;;2.80;;
21326;SDS011;10822;51.532;6.770;2023-07-31T11:10:17;5.72;;;2.88;;
21326;SDS011;10822;51.532;6.770;2023-07-31T11:12:45;4.53;;;2.50;;
21326;SDS011;10822;51.532;6.770;2023-07-31T11:15:12;5.10;;;2.80;;
21326;SDS011;10822;51.532;6.770;2023-07-31T11:17:38;5.18;;;2.78;;
21326;SDS011;10822;51.532;6.770;2023-07-31T11:20:05;4.30;;;2.78;;
21326;SDS011;10822;51.532;6.770;2023-07-31T11:22:32;5.90;;;2.85;;
21326;SDS011;10822;51.532;6.770;2023-07-31T11:24:58;4.57;;;2.67;;
21326;SDS011;10822;51.532;6.770;2023-07-31T11:27:27;3.50;;;2.50;;
21326;SDS011;10822;51.532;6.770;2023-07-31T11:29:53;4.85;;;2.42;;
21326;SDS011;10822;51.532;6.770;2023-07-31T11:32:25;6.18;;;2.67;;
21326;SDS011;10822;51.532;6.770;2023-07-31T11:34:52;3.47;;;2.30;;
21326;SDS011;10822;51.532;6.770;2023-07-31T11:37:18;3.28;;;2.42;;
21326;SDS011;10822;51.532;6.770;2023-07-31T11:39:57;3.78;;;2.40;;
21326;SDS011;10822;51.532;6.770;2023-07-31T11:42:23;3.70;;;2.10;;
21326;SDS011;10822;51.532;6.770;2023-07-31T11:44:49;4.05;;;2.42;;
21326;SDS011;10822;51.532;6.770;2023-07-31T11:47:16;4.72;;;2.60;;
21326;SDS011;10822;51.532;6.770;2023-07-31T11:49:43;3.55;;;2.78;;
21326;SDS011;10822;51.532;6.770;2023-07-31T11:52:09;3.53;;;2.58;;
21326;SDS011;10822;51.532;6.770;2023-07-31T11:54:35;5.82;;;3.13;;
21326;SDS011;10822;51.532;6.770;2023-07-31T11:57:02;6.75;;;3.22;;
21326;SDS011;10822;51.532;6.770;2023-07-31T11:59:28;6.25;;;2.92;;
21326;SDS011;10822;51.532;6.770;2023-07-31T12:01:54;5.63;;;3.03;;
21326;SDS011;10822;51.532;6.770;2023-07-31T12:04:20;3.20;;;2.35;;
21326;SDS011;10822;51.532;6.770;2023-07-31T12:06:46;4.65;;;2.63;;
21326;SDS011;10822;51.532;6.770;2023-07-31T12:09:15;3.65;;;2.60;;
21326;SDS011;10822;51.532;6.770;2023-07-31T12:11:44;4.18;;;2.65;;
21326;SDS011;10822;51.532;6.770;2023-07-31T12:14:27;5.07;;;3.13;;
21326;SDS011;10822;51.532;6.770;2023-07-31T12:16:56;5.18;;;3.63;;
21326;SDS011;10822;51.532;6.770;2023-07-31T12:19:22;5.28;;;3.42;;
21326;SDS011;10822;51.532;6.770;2023-07-31T12:21:49;6.90;;;3.67;;
21326;SDS011;10822;51.532;6.770;2023-07-31T12:24:17;6.43;;;3.75;;
21326;SDS011;10822;51.532;6.770;2023-07-31T12:26:44;6.25;;;3.35;;
21326;SDS011;10822;51.532;6.770;2023-07-31T12:29:11;6.00;;;3.22;;
21326;SDS011;10822;51.532;6.770;2023-07-31T12:31:37;7.45;;;3.78;;
21326;SDS011;10822;51.532;6.770;2023-07-31T12:34:14;6.10;;;3.47;;
21326;SDS011;10822;51.532;6.770;2023-07-31T12:36:40;5.10;;;3.45;;
21326;SDS011;10822;51.532;6.770;2023-07-31T12:39:06;7.38;;;3.88;;
21326;SDS011;10822;51.532;6.770;2023-07-31T12:41:32;7.07;;;3.38;;
21326;SDS011;10822;51.532;6.770;2023-07-31T12:43:58;7.95;;;4.10;;
21326;SDS011;10822;51.532;6.770;2023-07-31T12:46:24;11.40;;;5.20;;
21326;SDS011;10822;51.532;6.770;2023-07-31T12:48:49;19.08;;;7.15;;
21326;SDS011;10822;51.532;6.770;2023-07-31T12:51:15;9.32;;;4.95;;
21326;SDS011;10822;51.532;6.770;2023-07-31T12:53:41;7.80;;;4.47;;
21326;SDS011;10822;51.532;6.770;2023-07-31T12:56:08;6.30;;;3.75;;
21326;SDS011;10822;51.532;6.770;2023-07-31T12:58:34;11.32;;;4.40;;
21326;SDS011;10822;51.532;6.770;2023-07-31T13:01:00;7.95;;;4.40;;
21326;SDS011;10822;51.532;6.770;2023-07-31T13:03:26;8.38;;;3.50;;
21326;SDS011;10822;51.532;6.770;2023-07-31T13:05:52;10.30;;;3.90;;
21326;SDS011;10822;51.532;6.770;2023-07-31T13:08:19;4.78;;;3.33;;
21326;SDS011;10822;51.532;6.770;2023-07-31T13:10:45;7.25;;;3.58;;
21326;SDS011;10822;51.532;6.770;2023-07-31T13:13:11;5.55;;;3.60;;
21326;SDS011;10822;51.532;6.770;2023-07-31T13:15:37;6.95;;;3.63;;
21326;SDS011;10822;51.532;6.770;2023-07-31T13:18:02;6.00;;;4.00;;
21326;SDS011;10822;51.532;6.770;2023-07-31T13:20:28;6.68;;;3.72;;
21326;SDS011;10822;51.532;6.770;2023-07-31T13:22:54;8.35;;;4.18;;
21326;SDS011;10822;51.532;6.770;2023-07-31T13:25:20;5.93;;;3.83;;
21326;SDS011;10822;51.532;6.770;2023-07-31T13:27:46;9.73;;;4.10;;
21326;SDS011;10822;51.532;6.770;2023-07-31T13:30:12;7.45;;;3.95;;
21326;SDS011;10822;51.532;6.770;2023-07-31T13:32:38;6.15;;;3.47;;
21326;SDS011;10822;51.532;6.770;2023-07-31T13:35:05;7.57;;;3.67;;
21326;SDS011;10822;51.532;6.770;2023-07-31T13:37:31;5.93;;;3.70;;
21326;SDS011;10822;51.532;6.770;2023-07-31T13:39:57;8.20;;;4.07;;
21326;SDS011;10822;51.532;6.770;2023-07-31T13:42:23;6.47;;;4.15;;
21326;SDS011;10822;51.532;6.770;2023-07-31T13:44:49;7.07;;;4.35;;
21326;SDS011;10822;51.532;6.770;2023-07-31T13:47:15;7.72;;;4.38;;
21326;SDS011;10822;51.532;6.770;2023-07-31T13:49:41;10.18;;;4.63;;
21326;SDS011;10822;51.532;6.770;2023-07-31T13:52:08;7.18;;;4.38;;
21326;SDS011;10822;51.532;6.770;2023-07-31T13:54:34;7.38;;;4.38;;
21326;SDS011;10822;51.532;6.770;2023-07-31T13:57:00;9.23;;;4.07;;
21326;SDS011;10822;51.532;6.770;2023-07-31T13:59:26;7.68;;;4.30;;
21326;SDS011;10822;51.532;6.770;2023-07-31T14:01:52;7.95;;;4.50;;
21326;SDS011;10822;51.532;6.770;2023-07-31T14:04:18;8.07;;;4.20;;
21326;SDS011;10822;51.532;6.770;2023-07-31T14:06:44;9.93;;;4.38;;
21326;SDS011;10822;51.532;6.770;2023-07-31T14:09:10;7.90;;;4.70;;
21326;SDS011;10822;51.532;6.770;2023-07-31T14:11:36;5.50;;;3.47;;
21326;SDS011;10822;51.532;6.770;2023-07-31T14:14:02;7.53;;;4.30;;
21326;SDS011;10822;51.532;6.770;2023-07-31T14:16:29;8.18;;;4.40;;
21326;SDS011;10822;51.532;6.770;2023-07-31T14:18:55;10.18;;;4.72;;
21326;SDS011;10822;51.532;6.770;2023-07-31T14:21:23;9.85;;;5.20;;
21326;SDS011;10822;51.532;6.770;2023-07-31T14:23:50;8.77;;;4.65;;
21326;SDS011;10822;51.532;6.770;2023-07-31T14:26:15;8.98;;;4.82;;
21326;SDS011;10822;51.532;6.770;2023-07-31T14:28:41;10.15;;;4.28;;
21326;SDS011;10822;51.532;6.770;2023-07-31T14:31:07;7.90;;;4.03;;
21326;SDS011;10822;51.532;6.770;2023-07-31T14:33:33;11.32;;;3.83;;
21326;SDS011;10822;51.532;6.770;2023-07-31T14:36:00;7.80;;;4.10;;
21326;SDS011;10822;51.532;6.770;2023-07-31T14:38:26;5.72;;;3.45;;
21326;SDS011;10822;51.532;6.770;2023-07-31T14:40:52;6.05;;;3.45;;
21326;SDS011;10822;51.532;6.770;2023-07-31T14:43:18;6.18;;;3.55;;
21326;SDS011;10822;51.532;6.770;2023-07-31T14:45:44;6.30;;;3.30;;
21326;SDS011;10822;51.532;6.770;2023-07-31T14:48:11;7.47;;;3.85;;
21326;SDS011;10822;51.532;6.770;2023-07-31T14:50:38;8.13;;;4.28;;